sensor_id;sensor_type;location;lat;lon;timestamp;temperature;humidity
7576;DHT22;3829;50.798;4.358;2022-10-16T00:00:30;14.20;99.90
7576;DHT22;3829;50.798;4.358;2022-10-16T00:02:56;14.20;99.90
7576;DHT22;3829;50.798;4.358;2022-10-16T00:05:22;14.30;99.90
7576;DHT22;3829;50.798;4.358;2022-10-16T00:07:47;14.30;99.90
7576;DHT22;3829;50.798;4.358;2022-10-16T00:10:13;14.20;99.90
7576;DHT22;3829;50.798;4.358;2022-10-16T00:12:38;14.20;99.90
7576;DHT22;3829;50.798;4.358;2022-10-16T00:15:05;14.20;99.90
7576;DHT22;3829;50.798;4.358;2022-10-16T00:17:31;14.20;99.90
7576;DHT22;3829;50.798;4.358;2022-10-16T00:19:57;14.30;99.90
7576;DHT22;3829;50.798;4.358;2022-10-16T00:22:23;14.10;99.90
7576;DHT22;3829;50.798;4.358;2022-10-16T00:24:48;14.20;99.90
7576;DHT22;3829;50.798;4.358;2022-10-16T00:27:14;14.20;99.90
7576;DHT22;3829;50.798;4.358;2022-10-16T00:29:39;14.20;99.90
7576;DHT22;3829;50.798;4.358;2022-10-16T00:32:05;14.20;99.90
7576;DHT22;3829;50.798;4.358;2022-10-16T00:34:30;14.20;99.90
7576;DHT22;3829;50.798;4.358;2022-10-16T00:36:56;14.20;99.90
7576;DHT22;3829;50.798;4.358;2022-10-16T00:39:22;14.10;99.90
7576;DHT22;3829;50.798;4.358;2022-10-16T00:41:47;14.10;99.90
7576;DHT22;3829;50.798;4.358;2022-10-16T00:44:48;14.00;99.90
7576;DHT22;3829;50.798;4.358;2022-10-16T00:47:28;14.10;99.90
7576;DHT22;3829;50.798;4.358;2022-10-16T00:49:59;14.10;99.90
7576;DHT22;3829;50.798;4.358;2022-10-16T00:52:25;14.10;99.90
7576;DHT22;3829;50.798;4.358;2022-10-16T00:54:52;14.00;99.90
7576;DHT22;3829;50.798;4.358;2022-10-16T00:57:19;13.90;99.90
7576;DHT22;3829;50.798;4.358;2022-10-16T00:59:45;13.90;99.90
7576;DHT22;3829;50.798;4.358;2022-10-16T01:02:13;13.90;99.90
7576;DHT22;3829;50.798;4.358;2022-10-16T01:04:48;13.90;99.90
7576;DHT22;3829;50.798;4.358;2022-10-16T01:15:47;13.80;99.90
7576;DHT22;3829;50.798;4.358;2022-10-16T01:18:21;13.80;99.90
7576;DHT22;3829;50.798;4.358;2022-10-16T01:20:54;13.80;99.90
7576;DHT22;3829;50.798;4.358;2022-10-16T01:23:29;13.80;99.90
7576;DHT22;3829;50.798;4.358;2022-10-16T01:31:27;13.90;99.90
7576;DHT22;3829;50.798;4.358;2022-10-16T01:35:13;13.90;99.90
7576;DHT22;3829;50.798;4.358;2022-10-16T01:37:12;13.80;99.90
7576;DHT22;3829;50.798;4.358;2022-10-16T01:39:41;13.80;99.90
7576;DHT22;3829;50.798;4.358;2022-10-16T01:42:20;13.80;99.90
7576;DHT22;3829;50.798;4.358;2022-10-16T01:44:47;13.70;99.90
7576;DHT22;3829;50.798;4.358;2022-10-16T01:47:14;13.80;99.90
7576;DHT22;3829;50.798;4.358;2022-10-16T01:49:41;13.80;99.90
7576;DHT22;3829;50.798;4.358;2022-10-16T01:52:16;13.70;99.90
7576;DHT22;3829;50.798;4.358;2022-10-16T01:54:45;13.80;99.90
7576;DHT22;3829;50.798;4.358;2022-10-16T01:57:12;13.70;99.90
7576;DHT22;3829;50.798;4.358;2022-10-16T01:59:44;13.70;99.90
7576;DHT22;3829;50.798;4.358;2022-10-16T02:02:10;13.70;99.90
7576;DHT22;3829;50.798;4.358;2022-10-16T02:04:44;13.60;99.90
7576;DHT22;3829;50.798;4.358;2022-10-16T02:07:11;13.70;99.90
7576;DHT22;3829;50.798;4.358;2022-10-16T02:09:38;13.80;99.90
7576;DHT22;3829;50.798;4.358;2022-10-16T02:12:14;13.70;99.90
7576;DHT22;3829;50.798;4.358;2022-10-16T02:14:40;13.80;99.90
7576;DHT22;3829;50.798;4.358;2022-10-16T02:17:12;13.70;99.90
7576;DHT22;3829;50.798;4.358;2022-10-16T02:19:38;13.80;99.90
7576;DHT22;3829;50.798;4.358;2022-10-16T02:22:05;13.80;99.90
7576;DHT22;3829;50.798;4.358;2022-10-16T02:29:39;13.80;99.90
7576;DHT22;3829;50.798;4.358;2022-10-16T02:32:07;13.80;99.90
7576;DHT22;3829;50.798;4.358;2022-10-16T02:34:36;13.80;99.90
7576;DHT22;3829;50.798;4.358;2022-10-16T02:37:03;13.80;99.90
7576;DHT22;3829;50.798;4.358;2022-10-16T02:39:29;13.70;99.90
7576;DHT22;3829;50.798;4.358;2022-10-16T02:41:55;13.70;99.90
7576;DHT22;3829;50.798;4.358;2022-10-16T02:44:21;13.70;99.90
7576;DHT22;3829;50.798;4.358;2022-10-16T02:46:47;13.80;99.90
7576;DHT22;3829;50.798;4.358;2022-10-16T02:49:12;13.70;99.90
7576;DHT22;3829;50.798;4.358;2022-10-16T02:51:38;13.70;99.90
7576;DHT22;3829;50.798;4.358;2022-10-16T02:54:03;13.70;99.90
7576;DHT22;3829;50.798;4.358;2022-10-16T02:56:29;13.70;99.90
7576;DHT22;3829;50.798;4.358;2022-10-16T02:58:55;13.80;99.90
7576;DHT22;3829;50.798;4.358;2022-10-16T03:01:21;13.70;99.90
7576;DHT22;3829;50.798;4.358;2022-10-16T03:03:46;13.70;99.90
7576;DHT22;3829;50.798;4.358;2022-10-16T03:06:12;13.80;99.90
7576;DHT22;3829;50.798;4.358;2022-10-16T03:08:38;13.80;99.90
7576;DHT22;3829;50.798;4.358;2022-10-16T03:11:03;13.70;99.90
7576;DHT22;3829;50.798;4.358;2022-10-16T03:13:29;13.80;99.90
7576;DHT22;3829;50.798;4.358;2022-10-16T03:15:55;13.70;99.90
7576;DHT22;3829;50.798;4.358;2022-10-16T03:18:20;13.80;99.90
7576;DHT22;3829;50.798;4.358;2022-10-16T03:20:46;13.80;99.90
7576;DHT22;3829;50.798;4.358;2022-10-16T03:23:12;13.80;99.90
7576;DHT22;3829;50.798;4.358;2022-10-16T03:25:38;13.90;99.90
7576;DHT22;3829;50.798;4.358;2022-10-16T03:28:03;13.90;99.90
7576;DHT22;3829;50.798;4.358;2022-10-16T03:30:29;13.90;99.90
7576;DHT22;3829;50.798;4.358;2022-10-16T03:32:55;13.90;99.90
7576;DHT22;3829;50.798;4.358;2022-10-16T03:35:21;13.90;99.90
7576;DHT22;3829;50.798;4.358;2022-10-16T03:37:47;13.90;99.90
7576;DHT22;3829;50.798;4.358;2022-10-16T03:40:13;13.80;99.90
7576;DHT22;3829;50.798;4.358;2022-10-16T03:42:38;13.80;99.90
7576;DHT22;3829;50.798;4.358;2022-10-16T03:45:05;13.80;99.90
7576;DHT22;3829;50.798;4.358;2022-10-16T03:47:30;13.80;99.90
7576;DHT22;3829;50.798;4.358;2022-10-16T03:49:58;13.80;99.90
7576;DHT22;3829;50.798;4.358;2022-10-16T03:52:24;13.80;99.90
7576;DHT22;3829;50.798;4.358;2022-10-16T03:54:49;13.80;99.90
7576;DHT22;3829;50.798;4.358;2022-10-16T03:57:15;13.80;99.90
7576;DHT22;3829;50.798;4.358;2022-10-16T03:59:40;13.70;99.90
7576;DHT22;3829;50.798;4.358;2022-10-16T04:02:06;13.70;99.90
7576;DHT22;3829;50.798;4.358;2022-10-16T04:04:32;13.70;99.90
7576;DHT22;3829;50.798;4.358;2022-10-16T04:06:57;13.70;99.90
7576;DHT22;3829;50.798;4.358;2022-10-16T04:09:23;13.80;99.90
7576;DHT22;3829;50.798;4.358;2022-10-16T04:11:48;13.80;99.90
7576;DHT22;3829;50.798;4.358;2022-10-16T04:14:14;13.70;99.90
7576;DHT22;3829;50.798;4.358;2022-10-16T04:16:39;13.80;99.90
7576;DHT22;3829;50.798;4.358;2022-10-16T04:19:05;13.70;99.90
7576;DHT22;3829;50.798;4.358;2022-10-16T04:21:31;13.70;99.90
7576;DHT22;3829;50.798;4.358;2022-10-16T04:23:56;13.70;99.90
7576;DHT22;3829;50.798;4.358;2022-10-16T04:26:22;13.80;99.90
7576;DHT22;3829;50.798;4.358;2022-10-16T04:28:47;13.80;99.90
7576;DHT22;3829;50.798;4.358;2022-10-16T04:31:13;13.70;99.90
7576;DHT22;3829;50.798;4.358;2022-10-16T04:33:38;13.70;99.90
7576;DHT22;3829;50.798;4.358;2022-10-16T04:36:04;13.70;99.90
7576;DHT22;3829;50.798;4.358;2022-10-16T04:38:30;13.60;99.90
7576;DHT22;3829;50.798;4.358;2022-10-16T04:40:56;13.70;99.90
7576;DHT22;3829;50.798;4.358;2022-10-16T04:43:22;13.60;99.90
7576;DHT22;3829;50.798;4.358;2022-10-16T04:45:47;13.70;99.90
7576;DHT22;3829;50.798;4.358;2022-10-16T04:48:15;13.60;99.90
7576;DHT22;3829;50.798;4.358;2022-10-16T04:50:41;13.60;99.90
7576;DHT22;3829;50.798;4.358;2022-10-16T04:53:06;13.50;99.90
7576;DHT22;3829;50.798;4.358;2022-10-16T04:55:33;13.60;99.90
7576;DHT22;3829;50.798;4.358;2022-10-16T04:57:58;13.60;99.90
7576;DHT22;3829;50.798;4.358;2022-10-16T05:00:24;13.60;99.90
7576;DHT22;3829;50.798;4.358;2022-10-16T05:02:50;13.60;99.90
7576;DHT22;3829;50.798;4.358;2022-10-16T05:05:16;13.60;99.90
7576;DHT22;3829;50.798;4.358;2022-10-16T05:07:41;13.60;99.90
7576;DHT22;3829;50.798;4.358;2022-10-16T05:10:07;13.50;99.90
7576;DHT22;3829;50.798;4.358;2022-10-16T05:12:32;13.50;99.90
7576;DHT22;3829;50.798;4.358;2022-10-16T05:14:58;13.50;99.90
7576;DHT22;3829;50.798;4.358;2022-10-16T05:17:25;13.50;99.90
7576;DHT22;3829;50.798;4.358;2022-10-16T05:19:50;13.50;99.90
7576;DHT22;3829;50.798;4.358;2022-10-16T05:22:16;13.50;99.90
7576;DHT22;3829;50.798;4.358;2022-10-16T05:24:41;13.50;99.90
7576;DHT22;3829;50.798;4.358;2022-10-16T05:27:07;13.50;99.90
7576;DHT22;3829;50.798;4.358;2022-10-16T05:29:33;13.40;99.90
7576;DHT22;3829;50.798;4.358;2022-10-16T05:31:58;13.40;99.90
7576;DHT22;3829;50.798;4.358;2022-10-16T05:34:24;13.50;99.90
7576;DHT22;3829;50.798;4.358;2022-10-16T05:36:49;13.50;99.90
7576;DHT22;3829;50.798;4.358;2022-10-16T05:39:16;13.50;99.90
7576;DHT22;3829;50.798;4.358;2022-10-16T05:41:42;13.40;99.90
7576;DHT22;3829;50.798;4.358;2022-10-16T05:44:07;13.40;99.90
7576;DHT22;3829;50.798;4.358;2022-10-16T05:46:33;13.30;99.90
7576;DHT22;3829;50.798;4.358;2022-10-16T05:48:59;13.30;99.90
7576;DHT22;3829;50.798;4.358;2022-10-16T05:51:24;13.30;99.90
7576;DHT22;3829;50.798;4.358;2022-10-16T05:53:51;13.30;99.90
7576;DHT22;3829;50.798;4.358;2022-10-16T05:56:17;13.30;99.90
7576;DHT22;3829;50.798;4.358;2022-10-16T05:58:42;13.30;99.90
7576;DHT22;3829;50.798;4.358;2022-10-16T06:01:12;13.30;99.90
7576;DHT22;3829;50.798;4.358;2022-10-16T06:03:39;13.30;99.90
7576;DHT22;3829;50.798;4.358;2022-10-16T06:06:22;13.30;99.90
7576;DHT22;3829;50.798;4.358;2022-10-16T06:08:49;13.30;99.90
7576;DHT22;3829;50.798;4.358;2022-10-16T06:11:20;13.20;99.90
7576;DHT22;3829;50.798;4.358;2022-10-16T06:13:49;13.20;99.90
7576;DHT22;3829;50.798;4.358;2022-10-16T06:16:15;13.30;99.90
7576;DHT22;3829;50.798;4.358;2022-10-16T06:18:41;13.20;99.90
7576;DHT22;3829;50.798;4.358;2022-10-16T06:21:12;13.20;99.90
7576;DHT22;3829;50.798;4.358;2022-10-16T06:23:37;13.20;99.90
7576;DHT22;3829;50.798;4.358;2022-10-16T06:26:11;13.30;99.90
7576;DHT22;3829;50.798;4.358;2022-10-16T06:28:37;13.20;99.90
7576;DHT22;3829;50.798;4.358;2022-10-16T06:31:04;13.20;99.90
7576;DHT22;3829;50.798;4.358;2022-10-16T06:33:30;13.30;99.90
7576;DHT22;3829;50.798;4.358;2022-10-16T06:36:13;13.30;99.90
7576;DHT22;3829;50.798;4.358;2022-10-16T06:38:40;13.40;99.90
7576;DHT22;3829;50.798;4.358;2022-10-16T06:41:06;13.40;99.90
7576;DHT22;3829;50.798;4.358;2022-10-16T06:43:32;13.50;99.90
7576;DHT22;3829;50.798;4.358;2022-10-16T06:45:59;13.70;99.90
7576;DHT22;3829;50.798;4.358;2022-10-16T06:48:25;13.80;99.90
7576;DHT22;3829;50.798;4.358;2022-10-16T06:51:02;14.00;99.90
7576;DHT22;3829;50.798;4.358;2022-10-16T06:53:30;14.00;99.90
7576;DHT22;3829;50.798;4.358;2022-10-16T06:55:56;14.00;99.90
7576;DHT22;3829;50.798;4.358;2022-10-16T06:58:22;14.00;99.90
7576;DHT22;3829;50.798;4.358;2022-10-16T07:00:48;14.10;99.90
7576;DHT22;3829;50.798;4.358;2022-10-16T07:03:14;14.20;99.90
7576;DHT22;3829;50.798;4.358;2022-10-16T07:05:41;14.30;99.90
7576;DHT22;3829;50.798;4.358;2022-10-16T07:08:07;14.40;99.90
7576;DHT22;3829;50.798;4.358;2022-10-16T07:10:34;14.60;99.90
7576;DHT22;3829;50.798;4.358;2022-10-16T07:13:00;14.60;99.90
7576;DHT22;3829;50.798;4.358;2022-10-16T07:15:26;14.60;99.90
7576;DHT22;3829;50.798;4.358;2022-10-16T07:17:51;14.60;99.90
7576;DHT22;3829;50.798;4.358;2022-10-16T07:20:17;14.70;99.90
7576;DHT22;3829;50.798;4.358;2022-10-16T07:22:42;14.70;99.90
7576;DHT22;3829;50.798;4.358;2022-10-16T07:25:08;14.80;99.90
7576;DHT22;3829;50.798;4.358;2022-10-16T07:27:34;14.90;99.90
7576;DHT22;3829;50.798;4.358;2022-10-16T07:30:01;14.80;99.90
7576;DHT22;3829;50.798;4.358;2022-10-16T07:32:26;15.00;99.90
7576;DHT22;3829;50.798;4.358;2022-10-16T07:34:53;14.80;99.90
7576;DHT22;3829;50.798;4.358;2022-10-16T07:37:18;14.80;99.90
7576;DHT22;3829;50.798;4.358;2022-10-16T07:39:44;15.00;99.90
7576;DHT22;3829;50.798;4.358;2022-10-16T07:42:10;15.10;99.90
7576;DHT22;3829;50.798;4.358;2022-10-16T07:44:35;15.20;99.90
7576;DHT22;3829;50.798;4.358;2022-10-16T07:47:01;15.30;99.90
7576;DHT22;3829;50.798;4.358;2022-10-16T07:49:27;15.20;99.90
7576;DHT22;3829;50.798;4.358;2022-10-16T07:51:53;15.20;99.90
7576;DHT22;3829;50.798;4.358;2022-10-16T07:54:18;15.30;99.90
7576;DHT22;3829;50.798;4.358;2022-10-16T07:56:44;15.30;99.90
7576;DHT22;3829;50.798;4.358;2022-10-16T07:59:10;15.40;99.90
7576;DHT22;3829;50.798;4.358;2022-10-16T08:01:36;15.50;99.90
7576;DHT22;3829;50.798;4.358;2022-10-16T08:04:02;15.50;99.90
7576;DHT22;3829;50.798;4.358;2022-10-16T08:06:28;15.70;99.90
7576;DHT22;3829;50.798;4.358;2022-10-16T08:08:55;15.80;99.90
7576;DHT22;3829;50.798;4.358;2022-10-16T08:11:20;15.80;99.90
7576;DHT22;3829;50.798;4.358;2022-10-16T08:13:46;15.90;99.90
7576;DHT22;3829;50.798;4.358;2022-10-16T08:16:12;15.90;99.90
7576;DHT22;3829;50.798;4.358;2022-10-16T08:18:39;15.90;99.90
7576;DHT22;3829;50.798;4.358;2022-10-16T08:21:06;15.90;99.90
7576;DHT22;3829;50.798;4.358;2022-10-16T08:23:32;16.00;99.90
7576;DHT22;3829;50.798;4.358;2022-10-16T08:26:03;15.90;99.90
7576;DHT22;3829;50.798;4.358;2022-10-16T08:28:29;16.00;99.90
7576;DHT22;3829;50.798;4.358;2022-10-16T08:30:55;16.20;99.90
7576;DHT22;3829;50.798;4.358;2022-10-16T08:33:22;16.20;99.90
7576;DHT22;3829;50.798;4.358;2022-10-16T08:35:54;16.20;99.90
7576;DHT22;3829;50.798;4.358;2022-10-16T08:38:20;16.30;99.90
7576;DHT22;3829;50.798;4.358;2022-10-16T08:40:46;16.30;99.90
7576;DHT22;3829;50.798;4.358;2022-10-16T08:46:36;16.60;99.90
7576;DHT22;3829;50.798;4.358;2022-10-16T08:49:10;16.50;99.90
7576;DHT22;3829;50.798;4.358;2022-10-16T08:51:37;16.60;99.90
7576;DHT22;3829;50.798;4.358;2022-10-16T08:54:05;16.70;99.90
7576;DHT22;3829;50.798;4.358;2022-10-16T08:56:32;16.70;99.90
7576;DHT22;3829;50.798;4.358;2022-10-16T08:58:59;16.80;99.90
7576;DHT22;3829;50.798;4.358;2022-10-16T09:01:37;17.00;99.90
7576;DHT22;3829;50.798;4.358;2022-10-16T09:12:37;17.20;99.90
7576;DHT22;3829;50.798;4.358;2022-10-16T09:15:35;17.30;99.90
7576;DHT22;3829;50.798;4.358;2022-10-16T09:18:25;17.20;99.90
7576;DHT22;3829;50.798;4.358;2022-10-16T09:21:18;17.30;99.90
7576;DHT22;3829;50.798;4.358;2022-10-16T09:23:45;17.40;99.90
7576;DHT22;3829;50.798;4.358;2022-10-16T09:26:13;17.30;99.90
7576;DHT22;3829;50.798;4.358;2022-10-16T09:28:39;17.30;99.90
7576;DHT22;3829;50.798;4.358;2022-10-16T09:31:05;17.40;99.90
7576;DHT22;3829;50.798;4.358;2022-10-16T09:33:36;17.50;99.90
7576;DHT22;3829;50.798;4.358;2022-10-16T09:36:05;17.60;99.90
7576;DHT22;3829;50.798;4.358;2022-10-16T09:38:33;17.70;99.90
7576;DHT22;3829;50.798;4.358;2022-10-16T09:41:01;17.70;99.90
7576;DHT22;3829;50.798;4.358;2022-10-16T09:43:46;17.90;99.90
7576;DHT22;3829;50.798;4.358;2022-10-16T09:46:35;17.90;99.90
7576;DHT22;3829;50.798;4.358;2022-10-16T09:49:20;17.80;99.90
7576;DHT22;3829;50.798;4.358;2022-10-16T09:51:46;18.00;99.90
7576;DHT22;3829;50.798;4.358;2022-10-16T09:54:15;18.20;99.90
7576;DHT22;3829;50.798;4.358;2022-10-16T09:56:41;18.40;99.90
7576;DHT22;3829;50.798;4.358;2022-10-16T09:59:15;18.50;99.90
7576;DHT22;3829;50.798;4.358;2022-10-16T10:01:51;18.50;99.90
7576;DHT22;3829;50.798;4.358;2022-10-16T10:04:19;18.50;99.90
7576;DHT22;3829;50.798;4.358;2022-10-16T10:06:55;18.40;99.90
7576;DHT22;3829;50.798;4.358;2022-10-16T10:09:24;18.60;99.90
7576;DHT22;3829;50.798;4.358;2022-10-16T10:14:23;18.70;99.90
7576;DHT22;3829;50.798;4.358;2022-10-16T10:16:50;18.90;99.90
7576;DHT22;3829;50.798;4.358;2022-10-16T10:19:22;19.30;99.90
7576;DHT22;3829;50.798;4.358;2022-10-16T10:21:50;19.40;99.90
7576;DHT22;3829;50.798;4.358;2022-10-16T10:24:18;19.50;99.90
7576;DHT22;3829;50.798;4.358;2022-10-16T10:26:54;19.60;99.90
7576;DHT22;3829;50.798;4.358;2022-10-16T10:29:46;19.50;99.90
7576;DHT22;3829;50.798;4.358;2022-10-16T10:35:25;19.30;99.90
7576;DHT22;3829;50.798;4.358;2022-10-16T10:40:56;19.00;99.90
7576;DHT22;3829;50.798;4.358;2022-10-16T10:57:21;19.50;99.90
7576;DHT22;3829;50.798;4.358;2022-10-16T11:02:22;19.30;99.90
7576;DHT22;3829;50.798;4.358;2022-10-16T11:05:13;19.20;99.90
7576;DHT22;3829;50.798;4.358;2022-10-16T11:07:47;19.20;99.90
7576;DHT22;3829;50.798;4.358;2022-10-16T11:10:16;19.20;99.90
7576;DHT22;3829;50.798;4.358;2022-10-16T11:12:45;19.30;99.90
7576;DHT22;3829;50.798;4.358;2022-10-16T11:15:19;19.50;99.90
7576;DHT22;3829;50.798;4.358;2022-10-16T11:18:06;19.70;99.90
7576;DHT22;3829;50.798;4.358;2022-10-16T11:20:46;19.60;99.90
7576;DHT22;3829;50.798;4.358;2022-10-16T11:26:21;19.70;99.90
7576;DHT22;3829;50.798;4.358;2022-10-16T11:28:50;19.40;99.90
7576;DHT22;3829;50.798;4.358;2022-10-16T11:31:36;19.30;99.90
7576;DHT22;3829;50.798;4.358;2022-10-16T11:37:05;19.60;99.90
7576;DHT22;3829;50.798;4.358;2022-10-16T11:39:35;19.80;99.90
7576;DHT22;3829;50.798;4.358;2022-10-16T11:42:13;19.90;99.90
7576;DHT22;3829;50.798;4.358;2022-10-16T11:45:07;19.70;99.90
7576;DHT22;3829;50.798;4.358;2022-10-16T11:47:45;19.50;99.90
7576;DHT22;3829;50.798;4.358;2022-10-16T11:50:52;19.20;99.90
7576;DHT22;3829;50.798;4.358;2022-10-16T11:56:05;19.20;99.90
7576;DHT22;3829;50.798;4.358;2022-10-16T11:58:57;19.50;99.90
7576;DHT22;3829;50.798;4.358;2022-10-16T12:01:57;19.60;99.90
7576;DHT22;3829;50.798;4.358;2022-10-16T12:04:34;20.10;99.90
7576;DHT22;3829;50.798;4.358;2022-10-16T12:07:08;20.40;99.90
7576;DHT22;3829;50.798;4.358;2022-10-16T12:09:37;20.50;99.90
7576;DHT22;3829;50.798;4.358;2022-10-16T12:12:03;20.50;99.90
7576;DHT22;3829;50.798;4.358;2022-10-16T12:17:46;20.30;99.90
7576;DHT22;3829;50.798;4.358;2022-10-16T12:20:01;20.40;99.90
7576;DHT22;3829;50.798;4.358;2022-10-16T12:22:29;20.30;99.90
7576;DHT22;3829;50.798;4.358;2022-10-16T12:24:55;20.30;99.90
7576;DHT22;3829;50.798;4.358;2022-10-16T12:27:31;20.70;99.90
7576;DHT22;3829;50.798;4.358;2022-10-16T12:30:03;20.90;99.90
7576;DHT22;3829;50.798;4.358;2022-10-16T12:32:36;21.10;99.90
7576;DHT22;3829;50.798;4.358;2022-10-16T12:35:04;21.30;99.90
7576;DHT22;3829;50.798;4.358;2022-10-16T12:37:31;21.30;99.90
7576;DHT22;3829;50.798;4.358;2022-10-16T12:39:59;21.30;99.90
7576;DHT22;3829;50.798;4.358;2022-10-16T12:42:36;21.10;99.90
7576;DHT22;3829;50.798;4.358;2022-10-16T12:45:34;21.10;99.90
7576;DHT22;3829;50.798;4.358;2022-10-16T12:48:04;20.80;99.90
7576;DHT22;3829;50.798;4.358;2022-10-16T12:50:43;20.90;99.90
7576;DHT22;3829;50.798;4.358;2022-10-16T12:53:24;21.20;99.90
7576;DHT22;3829;50.798;4.358;2022-10-16T12:56:15;21.30;99.90
7576;DHT22;3829;50.798;4.358;2022-10-16T12:58:51;21.10;99.90
7576;DHT22;3829;50.798;4.358;2022-10-16T13:04:47;21.30;99.90
7576;DHT22;3829;50.798;4.358;2022-10-16T13:07:12;21.30;99.90
7576;DHT22;3829;50.798;4.358;2022-10-16T13:15:36;21.50;99.90
7576;DHT22;3829;50.798;4.358;2022-10-16T13:24:24;21.90;99.90
7576;DHT22;3829;50.798;4.358;2022-10-16T13:26:57;22.10;99.90
7576;DHT22;3829;50.798;4.358;2022-10-16T13:29:31;21.80;99.90
7576;DHT22;3829;50.798;4.358;2022-10-16T13:31:58;21.30;99.90
7576;DHT22;3829;50.798;4.358;2022-10-16T13:34:24;21.30;99.90
7576;DHT22;3829;50.798;4.358;2022-10-16T13:36:52;21.40;99.90
7576;DHT22;3829;50.798;4.358;2022-10-16T13:42:03;21.70;99.90
7576;DHT22;3829;50.798;4.358;2022-10-16T13:44:36;21.40;99.90
7576;DHT22;3829;50.798;4.358;2022-10-16T13:47:02;21.20;99.90
7576;DHT22;3829;50.798;4.358;2022-10-16T13:49:28;21.00;99.90
7576;DHT22;3829;50.798;4.358;2022-10-16T13:51:58;20.80;99.90
7576;DHT22;3829;50.798;4.358;2022-10-16T13:54:26;20.50;99.90
7576;DHT22;3829;50.798;4.358;2022-10-16T13:56:52;20.40;99.90
7576;DHT22;3829;50.798;4.358;2022-10-16T13:59:33;20.50;99.90
7576;DHT22;3829;50.798;4.358;2022-10-16T14:02:00;20.70;99.90
7576;DHT22;3829;50.798;4.358;2022-10-16T14:04:32;20.80;99.90
7576;DHT22;3829;50.798;4.358;2022-10-16T14:06:58;21.00;99.90
7576;DHT22;3829;50.798;4.358;2022-10-16T14:09:29;21.10;99.90
7576;DHT22;3829;50.798;4.358;2022-10-16T14:12:03;20.90;99.90
7576;DHT22;3829;50.798;4.358;2022-10-16T14:14:41;20.90;99.90
7576;DHT22;3829;50.798;4.358;2022-10-16T14:17:18;20.70;99.90
7576;DHT22;3829;50.798;4.358;2022-10-16T14:19:49;20.70;99.90
7576;DHT22;3829;50.798;4.358;2022-10-16T14:24:49;20.60;99.90
7576;DHT22;3829;50.798;4.358;2022-10-16T14:27:29;20.70;99.90
7576;DHT22;3829;50.798;4.358;2022-10-16T14:32:33;20.80;99.90
7576;DHT22;3829;50.798;4.358;2022-10-16T14:34:59;20.80;99.90
7576;DHT22;3829;50.798;4.358;2022-10-16T14:37:27;20.70;99.90
7576;DHT22;3829;50.798;4.358;2022-10-16T14:39:54;20.30;99.90
7576;DHT22;3829;50.798;4.358;2022-10-16T14:42:22;20.20;99.90
7576;DHT22;3829;50.798;4.358;2022-10-16T14:44:51;20.20;99.90
7576;DHT22;3829;50.798;4.358;2022-10-16T14:47:24;20.00;99.90
7576;DHT22;3829;50.798;4.358;2022-10-16T14:49:52;20.00;99.90
7576;DHT22;3829;50.798;4.358;2022-10-16T14:52:20;20.00;99.90
7576;DHT22;3829;50.798;4.358;2022-10-16T14:54:49;20.00;99.90
7576;DHT22;3829;50.798;4.358;2022-10-16T14:57:20;20.00;99.90
7576;DHT22;3829;50.798;4.358;2022-10-16T14:59:47;20.00;99.90
7576;DHT22;3829;50.798;4.358;2022-10-16T15:04:48;19.90;99.90
7576;DHT22;3829;50.798;4.358;2022-10-16T15:07:14;19.70;99.90
7576;DHT22;3829;50.798;4.358;2022-10-16T15:09:40;19.80;99.90
7576;DHT22;3829;50.798;4.358;2022-10-16T15:12:06;19.80;99.90
7576;DHT22;3829;50.798;4.358;2022-10-16T15:14:31;19.90;99.90
7576;DHT22;3829;50.798;4.358;2022-10-16T15:16:57;20.00;99.90
7576;DHT22;3829;50.798;4.358;2022-10-16T15:19:23;20.10;99.90
7576;DHT22;3829;50.798;4.358;2022-10-16T15:21:48;19.90;99.90
7576;DHT22;3829;50.798;4.358;2022-10-16T15:24:15;19.80;99.90
7576;DHT22;3829;50.798;4.358;2022-10-16T15:26:40;19.50;99.90
7576;DHT22;3829;50.798;4.358;2022-10-16T15:29:06;19.40;99.90
7576;DHT22;3829;50.798;4.358;2022-10-16T15:31:32;19.50;99.90
7576;DHT22;3829;50.798;4.358;2022-10-16T15:33:57;19.60;99.90
7576;DHT22;3829;50.798;4.358;2022-10-16T15:36:31;19.60;99.90
7576;DHT22;3829;50.798;4.358;2022-10-16T15:39:03;19.60;99.90
7576;DHT22;3829;50.798;4.358;2022-10-16T15:41:28;19.50;99.90
7576;DHT22;3829;50.798;4.358;2022-10-16T15:43:54;19.50;99.90
7576;DHT22;3829;50.798;4.358;2022-10-16T15:46:22;19.30;99.90
7576;DHT22;3829;50.798;4.358;2022-10-16T15:48:49;19.10;99.90
7576;DHT22;3829;50.798;4.358;2022-10-16T15:51:16;19.10;99.90
7576;DHT22;3829;50.798;4.358;2022-10-16T15:53:42;19.10;99.90
7576;DHT22;3829;50.798;4.358;2022-10-16T15:56:09;19.10;99.90
7576;DHT22;3829;50.798;4.358;2022-10-16T15:58:35;19.10;99.90
7576;DHT22;3829;50.798;4.358;2022-10-16T16:01:01;19.00;99.90
7576;DHT22;3829;50.798;4.358;2022-10-16T16:03:28;19.00;99.90
7576;DHT22;3829;50.798;4.358;2022-10-16T16:05:55;19.00;99.90
7576;DHT22;3829;50.798;4.358;2022-10-16T16:08:20;19.00;99.90
7576;DHT22;3829;50.798;4.358;2022-10-16T16:11:04;18.80;99.90
7576;DHT22;3829;50.798;4.358;2022-10-16T16:13:30;18.80;99.90
7576;DHT22;3829;50.798;4.358;2022-10-16T16:15:55;18.70;99.90
7576;DHT22;3829;50.798;4.358;2022-10-16T16:18:21;18.50;99.90
7576;DHT22;3829;50.798;4.358;2022-10-16T16:20:47;18.40;99.90
7576;DHT22;3829;50.798;4.358;2022-10-16T16:23:13;18.30;99.90
7576;DHT22;3829;50.798;4.358;2022-10-16T16:25:39;18.30;99.90
7576;DHT22;3829;50.798;4.358;2022-10-16T16:28:04;18.20;99.90
7576;DHT22;3829;50.798;4.358;2022-10-16T16:30:32;18.10;99.90
7576;DHT22;3829;50.798;4.358;2022-10-16T16:32:58;18.10;99.90
7576;DHT22;3829;50.798;4.358;2022-10-16T16:35:23;18.20;99.90
7576;DHT22;3829;50.798;4.358;2022-10-16T16:37:49;18.20;99.90
7576;DHT22;3829;50.798;4.358;2022-10-16T16:40:14;18.10;99.90
7576;DHT22;3829;50.798;4.358;2022-10-16T16:42:40;18.10;99.90
7576;DHT22;3829;50.798;4.358;2022-10-16T16:45:06;18.00;99.90
7576;DHT22;3829;50.798;4.358;2022-10-16T16:47:32;17.90;99.90
7576;DHT22;3829;50.798;4.358;2022-10-16T16:49:57;17.90;99.90
7576;DHT22;3829;50.798;4.358;2022-10-16T16:52:23;18.00;99.90
7576;DHT22;3829;50.798;4.358;2022-10-16T16:54:48;18.00;99.90
7576;DHT22;3829;50.798;4.358;2022-10-16T16:57:18;18.00;99.90
7576;DHT22;3829;50.798;4.358;2022-10-16T16:59:44;18.00;99.90
7576;DHT22;3829;50.798;4.358;2022-10-16T17:02:10;18.00;99.90
7576;DHT22;3829;50.798;4.358;2022-10-16T17:04:35;17.70;99.90
7576;DHT22;3829;50.798;4.358;2022-10-16T17:07:01;17.30;99.90
7576;DHT22;3829;50.798;4.358;2022-10-16T17:09:27;17.10;99.90
7576;DHT22;3829;50.798;4.358;2022-10-16T17:11:52;17.00;99.90
7576;DHT22;3829;50.798;4.358;2022-10-16T17:14:18;16.90;99.90
7576;DHT22;3829;50.798;4.358;2022-10-16T17:16:44;16.80;99.90
7576;DHT22;3829;50.798;4.358;2022-10-16T17:19:19;16.80;99.90
7576;DHT22;3829;50.798;4.358;2022-10-16T17:21:47;16.80;99.90
7576;DHT22;3829;50.798;4.358;2022-10-16T17:24:13;16.70;99.90
7576;DHT22;3829;50.798;4.358;2022-10-16T17:26:39;16.70;99.90
7576;DHT22;3829;50.798;4.358;2022-10-16T17:29:11;16.60;99.90
7576;DHT22;3829;50.798;4.358;2022-10-16T17:31:37;16.60;99.90
7576;DHT22;3829;50.798;4.358;2022-10-16T17:34:05;16.50;99.90
7576;DHT22;3829;50.798;4.358;2022-10-16T17:36:33;16.40;99.90
7576;DHT22;3829;50.798;4.358;2022-10-16T17:39:01;16.40;99.90
7576;DHT22;3829;50.798;4.358;2022-10-16T17:41:29;16.50;99.90
7576;DHT22;3829;50.798;4.358;2022-10-16T17:43:54;16.50;99.90
7576;DHT22;3829;50.798;4.358;2022-10-16T17:46:22;16.40;99.90